sensor_id;sensor_type;location;lat;lon;timestamp;pressure;altitude;pressure_sealevel;temperature;humidity
8334;BME280;4204;43.004;23.052;2023-05-11T00:02:12;93967.94;;;11.13;100.00
8334;BME280;4204;43.004;23.052;2023-05-11T00:04:40;93955.91;;;11.16;100.00
8334;BME280;4204;43.004;23.052;2023-05-11T00:07:08;93964.34;;;11.09;100.00
8334;BME280;4204;43.004;23.052;2023-05-11T00:09:36;93965.16;;;11.18;100.00
8334;BME280;4204;43.004;23.052;2023-05-11T00:12:05;93963.09;;;11.32;100.00
8334;BME280;4204;43.004;23.052;2023-05-11T00:14:33;93959.97;;;11.30;100.00
8334;BME280;4204;43.004;23.052;2023-05-11T00:17:01;93972.34;;;11.26;100.00
8334;BME280;4204;43.004;23.052;2023-05-11T00:19:28;93966.09;;;11.39;100.00
8334;BME280;4204;43.004;23.052;2023-05-11T00:21:58;93961.38;;;11.19;100.00
8334;BME280;4204;43.004;23.052;2023-05-11T00:24:25;93962.00;;;11.16;100.00
8334;BME280;4204;43.004;23.052;2023-05-11T00:26:53;93960.63;;;11.27;100.00
8334;BME280;4204;43.004;23.052;2023-05-11T00:29:22;93959.50;;;11.28;100.00
8334;BME280;4204;43.004;23.052;2023-05-11T00:31:50;93959.97;;;11.22;100.00
8334;BME280;4204;43.004;23.052;2023-05-11T00:34:18;93960.13;;;11.17;100.00
8334;BME280;4204;43.004;23.052;2023-05-11T00:36:45;93966.22;;;11.17;100.00
8334;BME280;4204;43.004;23.052;2023-05-11T00:39:14;93964.38;;;11.35;100.00
8334;BME280;4204;43.004;23.052;2023-05-11T00:41:43;93972.03;;;11.28;100.00
8334;BME280;4204;43.004;23.052;2023-05-11T00:44:11;93970.16;;;11.28;100.00
8334;BME280;4204;43.004;23.052;2023-05-11T00:46:40;93967.03;;;11.26;100.00
8334;BME280;4204;43.004;23.052;2023-05-11T00:49:08;93965.00;;;11.23;100.00
8334;BME280;4204;43.004;23.052;2023-05-11T00:51:37;93971.72;;;11.12;100.00
8334;BME280;4204;43.004;23.052;2023-05-11T00:54:04;93972.97;;;11.06;100.00
8334;BME280;4204;43.004;23.052;2023-05-11T00:56:38;93966.22;;;11.00;100.00
8334;BME280;4204;43.004;23.052;2023-05-11T00:59:06;93971.56;;;11.00;100.00
8334;BME280;4204;43.004;23.052;2023-05-11T01:01:37;93974.53;;;11.07;100.00
8334;BME280;4204;43.004;23.052;2023-05-11T01:04:06;93969.84;;;11.13;100.00
8334;BME280;4204;43.004;23.052;2023-05-11T01:06:40;93975.94;;;11.05;100.00
8334;BME280;4204;43.004;23.052;2023-05-11T01:09:18;93977.97;;;11.16;100.00
8334;BME280;4204;43.004;23.052;2023-05-11T01:11:50;93970.44;;;11.10;100.00
8334;BME280;4204;43.004;23.052;2023-05-11T01:14:26;93973.44;;;11.17;100.00
8334;BME280;4204;43.004;23.052;2023-05-11T01:17:00;93975.63;;;11.06;100.00
8334;BME280;4204;43.004;23.052;2023-05-11T01:19:38;93969.38;;;11.11;100.00
8334;BME280;4204;43.004;23.052;2023-05-11T01:22:17;93978.75;;;11.08;100.00
8334;BME280;4204;43.004;23.052;2023-05-11T01:25:08;93967.78;;;11.10;100.00
8334;BME280;4204;43.004;23.052;2023-05-11T01:27:47;93972.19;;;11.14;100.00
8334;BME280;4204;43.004;23.052;2023-05-11T01:30:28;93970.94;;;11.12;100.00
8334;BME280;4204;43.004;23.052;2023-05-11T01:33:02;93975.47;;;11.11;100.00
8334;BME280;4204;43.004;23.052;2023-05-11T01:35:34;93965.00;;;11.15;100.00
8334;BME280;4204;43.004;23.052;2023-05-11T01:38:07;93972.78;;;11.11;100.00
8334;BME280;4204;43.004;23.052;2023-05-11T01:40:38;93973.88;;;10.93;100.00
8334;BME280;4204;43.004;23.052;2023-05-11T01:43:12;93974.22;;;11.00;100.00
8334;BME280;4204;43.004;23.052;2023-05-11T01:45:44;93970.41;;;10.93;100.00
8334;BME280;4204;43.004;23.052;2023-05-11T01:48:15;93971.06;;;10.90;100.00
8334;BME280;4204;43.004;23.052;2023-05-11T01:50:45;93972.00;;;10.94;100.00
8334;BME280;4204;43.004;23.052;2023-05-11T01:53:14;93976.50;;;10.85;100.00
8334;BME280;4204;43.004;23.052;2023-05-11T01:55:44;93974.03;;;10.88;100.00
8334;BME280;4204;43.004;23.052;2023-05-11T01:58:16;93973.91;;;11.02;100.00
8334;BME280;4204;43.004;23.052;2023-05-11T02:00:46;93974.84;;;11.14;100.00
8334;BME280;4204;43.004;23.052;2023-05-11T02:03:15;93970.13;;;11.03;100.00
8334;BME280;4204;43.004;23.052;2023-05-11T02:05:44;93975.59;;;10.98;100.00
8334;BME280;4204;43.004;23.052;2023-05-11T02:08:15;93978.91;;;11.03;100.00
8334;BME280;4204;43.004;23.052;2023-05-11T02:10:44;93979.38;;;11.05;100.00
8334;BME280;4204;43.004;23.052;2023-05-11T02:13:14;93971.69;;;11.04;100.00
8334;BME280;4204;43.004;23.052;2023-05-11T02:15:45;93978.38;;;10.84;100.00
8334;BME280;4204;43.004;23.052;2023-05-11T02:18:15;93973.06;;;10.84;100.00
8334;BME280;4204;43.004;23.052;2023-05-11T02:20:44;93975.75;;;10.93;100.00
8334;BME280;4204;43.004;23.052;2023-05-11T02:23:14;93973.88;;;10.93;100.00
8334;BME280;4204;43.004;23.052;2023-05-11T02:25:43;93972.78;;;10.86;100.00
8334;BME280;4204;43.004;23.052;2023-05-11T02:28:11;93972.41;;;10.70;100.00
8334;BME280;4204;43.004;23.052;2023-05-11T02:30:44;93969.59;;;10.67;100.00
8334;BME280;4204;43.004;23.052;2023-05-11T02:33:18;93973.53;;;10.78;100.00
8334;BME280;4204;43.004;23.052;2023-05-11T02:35:49;93972.56;;;10.65;100.00
8334;BME280;4204;43.004;23.052;2023-05-11T02:38:18;93965.16;;;10.53;100.00
8334;BME280;4204;43.004;23.052;2023-05-11T02:40:50;93964.88;;;10.55;100.00
8334;BME280;4204;43.004;23.052;2023-05-11T02:43:23;93965.13;;;10.45;100.00
8334;BME280;4204;43.004;23.052;2023-05-11T02:46:01;93962.81;;;10.52;100.00
8334;BME280;4204;43.004;23.052;2023-05-11T02:48:35;93953.28;;;10.59;100.00
8334;BME280;4204;43.004;23.052;2023-05-11T02:51:06;93946.38;;;10.50;100.00
8334;BME280;4204;43.004;23.052;2023-05-11T02:53:41;93964.13;;;10.63;100.00
8334;BME280;4204;43.004;23.052;2023-05-11T02:56:11;93965.34;;;10.57;100.00
8334;BME280;4204;43.004;23.052;2023-05-11T02:58:39;93957.50;;;10.52;100.00
8334;BME280;4204;43.004;23.052;2023-05-11T03:01:18;93960.34;;;10.64;100.00
8334;BME280;4204;43.004;23.052;2023-05-11T03:03:48;93963.78;;;10.65;100.00
8334;BME280;4204;43.004;23.052;2023-05-11T03:06:15;93966.75;;;10.54;100.00
8334;BME280;4204;43.004;23.052;2023-05-11T03:08:43;93960.28;;;10.47;100.00
8334;BME280;4204;43.004;23.052;2023-05-11T03:11:12;93951.34;;;10.43;100.00
8334;BME280;4204;43.004;23.052;2023-05-11T03:13:41;93958.09;;;10.40;100.00
8334;BME280;4204;43.004;23.052;2023-05-11T03:16:10;93970.16;;;10.46;100.00
8334;BME280;4204;43.004;23.052;2023-05-11T03:18:39;93957.66;;;10.55;100.00
8334;BME280;4204;43.004;23.052;2023-05-11T03:21:08;93959.84;;;10.53;100.00
8334;BME280;4204;43.004;23.052;2023-05-11T03:23:37;93948.41;;;10.44;100.00
8334;BME280;4204;43.004;23.052;2023-05-11T03:26:06;93941.63;;;10.30;100.00
8334;BME280;4204;43.004;23.052;2023-05-11T03:28:35;93962.66;;;10.48;100.00
8334;BME280;4204;43.004;23.052;2023-05-11T03:31:07;93967.78;;;10.45;100.00
8334;BME280;4204;43.004;23.052;2023-05-11T03:33:35;93968.56;;;10.45;100.00
8334;BME280;4204;43.004;23.052;2023-05-11T03:36:09;93966.75;;;10.54;100.00
8334;BME280;4204;43.004;23.052;2023-05-11T03:38:38;93969.06;;;10.47;100.00
8334;BME280;4204;43.004;23.052;2023-05-11T03:41:13;93975.19;;;10.56;100.00
8334;BME280;4204;43.004;23.052;2023-05-11T03:43:43;93971.16;;;10.68;100.00
8334;BME280;4204;43.004;23.052;2023-05-11T03:46:13;93967.72;;;10.67;100.00
8334;BME280;4204;43.004;23.052;2023-05-11T03:48:44;93968.34;;;10.73;100.00
8334;BME280;4204;43.004;23.052;2023-05-11T03:51:18;93975.88;;;10.79;100.00
8334;BME280;4204;43.004;23.052;2023-05-11T03:53:46;93965.66;;;10.64;100.00
8334;BME280;4204;43.004;23.052;2023-05-11T03:56:14;93975.25;;;10.74;100.00
8334;BME280;4204;43.004;23.052;2023-05-11T03:58:42;93981.34;;;10.74;100.00
8334;BME280;4204;43.004;23.052;2023-05-11T04:01:11;93971.97;;;10.85;100.00
8334;BME280;4204;43.004;23.052;2023-05-11T04:03:46;93982.81;;;10.97;100.00
8334;BME280;4204;43.004;23.052;2023-05-11T04:06:15;93987.81;;;10.90;100.00
8334;BME280;4204;43.004;23.052;2023-05-11T04:08:46;93985.63;;;10.92;100.00
8334;BME280;4204;43.004;23.052;2023-05-11T04:11:14;93986.22;;;10.81;100.00
8334;BME280;4204;43.004;23.052;2023-05-11T04:13:41;93978.38;;;10.76;100.00
8334;BME280;4204;43.004;23.052;2023-05-11T04:16:09;93987.34;;;10.88;100.00
8334;BME280;4204;43.004;23.052;2023-05-11T04:18:37;93987.91;;;10.77;100.00
8334;BME280;4204;43.004;23.052;2023-05-11T04:21:04;93992.19;;;10.86;100.00
8334;BME280;4204;43.004;23.052;2023-05-11T04:23:32;93982.56;;;10.68;100.00
8334;BME280;4204;43.004;23.052;2023-05-11T04:26:01;93985.19;;;10.59;100.00
8334;BME280;4204;43.004;23.052;2023-05-11T04:28:29;93989.25;;;10.48;100.00
8334;BME280;4204;43.004;23.052;2023-05-11T04:30:57;93988.59;;;10.43;100.00
8334;BME280;4204;43.004;23.052;2023-05-11T04:33:25;94000.16;;;10.47;100.00
8334;BME280;4204;43.004;23.052;2023-05-11T04:35:54;93991.47;;;10.64;100.00
8334;BME280;4204;43.004;23.052;2023-05-11T04:38:24;93995.59;;;10.78;100.00
8334;BME280;4204;43.004;23.052;2023-05-11T04:40:53;93996.69;;;10.77;100.00
8334;BME280;4204;43.004;23.052;2023-05-11T04:43:22;93996.25;;;10.84;100.00
8334;BME280;4204;43.004;23.052;2023-05-11T04:45:50;94008.13;;;10.78;100.00
8334;BME280;4204;43.004;23.052;2023-05-11T04:48:26;94011.34;;;10.66;100.00
8334;BME280;4204;43.004;23.052;2023-05-11T04:50:55;94014.56;;;10.46;100.00
8334;BME280;4204;43.004;23.052;2023-05-11T04:53:27;94001.94;;;10.60;100.00
8334;BME280;4204;43.004;23.052;2023-05-11T04:55:55;94006.78;;;10.58;100.00
8334;BME280;4204;43.004;23.052;2023-05-11T04:58:24;94004.28;;;10.62;100.00
8334;BME280;4204;43.004;23.052;2023-05-11T05:00:52;94011.19;;;10.63;100.00
8334;BME280;4204;43.004;23.052;2023-05-11T05:03:20;94003.25;;;10.71;100.00
8334;BME280;4204;43.004;23.052;2023-05-11T05:05:50;94008.25;;;10.73;100.00
8334;BME280;4204;43.004;23.052;2023-05-11T05:08:18;94009.38;;;10.72;100.00
8334;BME280;4204;43.004;23.052;2023-05-11T05:10:48;94009.19;;;10.68;100.00
8334;BME280;4204;43.004;23.052;2023-05-11T05:13:15;94012.59;;;10.60;100.00
8334;BME280;4204;43.004;23.052;2023-05-11T05:15:44;94013.69;;;10.59;100.00
8334;BME280;4204;43.004;23.052;2023-05-11T05:18:12;94013.66;;;10.50;100.00
8334;BME280;4204;43.004;23.052;2023-05-11T05:20:43;94019.41;;;10.44;100.00
8334;BME280;4204;43.004;23.052;2023-05-11T05:23:10;94012.50;;;10.43;100.00
8334;BME280;4204;43.004;23.052;2023-05-11T05:25:38;94018.53;;;10.57;100.00
8334;BME280;4204;43.004;23.052;2023-05-11T05:28:06;94021.38;;;10.61;100.00
8334;BME280;4204;43.004;23.052;2023-05-11T05:30:34;94021.41;;;10.69;100.00
8334;BME280;4204;43.004;23.052;2023-05-11T05:33:04;94025.31;;;10.72;100.00
8334;BME280;4204;43.004;23.052;2023-05-11T05:35:33;94032.13;;;10.55;100.00
8334;BME280;4204;43.004;23.052;2023-05-11T05:38:01;94020.84;;;10.50;100.00
8334;BME280;4204;43.004;23.052;2023-05-11T05:40:29;94028.06;;;10.58;100.00
8334;BME280;4204;43.004;23.052;2023-05-11T05:42:57;94033.06;;;10.51;100.00
8334;BME280;4204;43.004;23.052;2023-05-11T05:45:25;94028.22;;;10.53;100.00
8334;BME280;4204;43.004;23.052;2023-05-11T05:47:55;94043.72;;;10.51;100.00
8334;BME280;4204;43.004;23.052;2023-05-11T05:50:27;94038.75;;;10.67;100.00
8334;BME280;4204;43.004;23.052;2023-05-11T05:52:56;94040.16;;;10.64;100.00
8334;BME280;4204;43.004;23.052;2023-05-11T05:55:25;94039.09;;;10.74;100.00
8334;BME280;4204;43.004;23.052;2023-05-11T05:57:54;94040.03;;;10.69;100.00
8334;BME280;4204;43.004;23.052;2023-05-11T06:00:22;94040.22;;;10.81;100.00
8334;BME280;4204;43.004;23.052;2023-05-11T06:02:59;94042.50;;;10.66;100.00
8334;BME280;4204;43.004;23.052;2023-05-11T06:05:28;94036.09;;;10.67;100.00
8334;BME280;4204;43.004;23.052;2023-05-11T06:07:56;94030.59;;;10.63;100.00
8334;BME280;4204;43.004;23.052;2023-05-11T06:10:24;94042.25;;;10.76;100.00
8334;BME280;4204;43.004;23.052;2023-05-11T06:12:51;94048.03;;;10.78;100.00
8334;BME280;4204;43.004;23.052;2023-05-11T06:15:20;94043.63;;;10.73;100.00
8334;BME280;4204;43.004;23.052;2023-05-11T06:17:52;94045.66;;;10.76;100.00
8334;BME280;4204;43.004;23.052;2023-05-11T06:20:20;94038.47;;;10.77;100.00
8334;BME280;4204;43.004;23.052;2023-05-11T06:22:51;94040.53;;;10.80;100.00
8334;BME280;4204;43.004;23.052;2023-05-11T06:25:19;94046.34;;;10.90;100.00
8334;BME280;4204;43.004;23.052;2023-05-11T06:27:47;94048.53;;;10.88;100.00
8334;BME280;4204;43.004;23.052;2023-05-11T06:30:15;94051.22;;;10.88;100.00
8334;BME280;4204;43.004;23.052;2023-05-11T06:32:46;94049.97;;;10.94;100.00
8334;BME280;4204;43.004;23.052;2023-05-11T06:35:16;94047.31;;;10.94;100.00
8334;BME280;4204;43.004;23.052;2023-05-11T06:37:45;94061.53;;;10.90;100.00
8334;BME280;4204;43.004;23.052;2023-05-11T06:40:14;94062.69;;;11.06;100.00
8334;BME280;4204;43.004;23.052;2023-05-11T06:42:42;94059.53;;;11.04;100.00
8334;BME280;4204;43.004;23.052;2023-05-11T06:45:11;94065.34;;;11.06;100.00
8334;BME280;4204;43.004;23.052;2023-05-11T06:47:41;94064.06;;;11.03;100.00
8334;BME280;4204;43.004;23.052;2023-05-11T06:50:09;94063.28;;;11.03;100.00
8334;BME280;4204;43.004;23.052;2023-05-11T06:52:37;94062.03;;;11.00;100.00
8334;BME280;4204;43.004;23.052;2023-05-11T06:55:06;94072.50;;;10.97;100.00
8334;BME280;4204;43.004;23.052;2023-05-11T06:57:35;94069.84;;;10.88;100.00
8334;BME280;4204;43.004;23.052;2023-05-11T07:00:04;94069.78;;;10.80;100.00
8334;BME280;4204;43.004;23.052;2023-05-11T07:02:32;94077.59;;;10.76;100.00
8334;BME280;4204;43.004;23.052;2023-05-11T07:05:00;94077.78;;;10.80;100.00
8334;BME280;4204;43.004;23.052;2023-05-11T07:07:28;94072.63;;;10.83;100.00
8334;BME280;4204;43.004;23.052;2023-05-11T07:09:55;94080.00;;;10.86;100.00
8334;BME280;4204;43.004;23.052;2023-05-11T07:12:24;94077.97;;;10.92;100.00
8334;BME280;4204;43.004;23.052;2023-05-11T07:14:53;94078.16;;;11.04;100.00
8334;BME280;4204;43.004;23.052;2023-05-11T07:17:20;94071.09;;;10.99;100.00
8334;BME280;4204;43.004;23.052;2023-05-11T07:19:48;94071.91;;;11.00;100.00
8334;BME280;4204;43.004;23.052;2023-05-11T07:22:17;94064.53;;;11.05;100.00
8334;BME280;4204;43.004;23.052;2023-05-11T07:24:45;94075.78;;;10.94;100.00
8334;BME280;4204;43.004;23.052;2023-05-11T07:27:13;94071.88;;;10.91;100.00
8334;BME280;4204;43.004;23.052;2023-05-11T07:29:41;94079.88;;;11.00;100.00
8334;BME280;4204;43.004;23.052;2023-05-11T07:32:10;94085.56;;;11.07;100.00
8334;BME280;4204;43.004;23.052;2023-05-11T07:34:38;94085.72;;;11.10;100.00
8334;BME280;4204;43.004;23.052;2023-05-11T07:37:06;94059.03;;;10.93;100.00
8334;BME280;4204;43.004;23.052;2023-05-11T07:39:34;94069.06;;;10.96;100.00
8334;BME280;4204;43.004;23.052;2023-05-11T07:42:02;94083.66;;;11.07;100.00
8334;BME280;4204;43.004;23.052;2023-05-11T07:50:23;94077.00;;;11.35;100.00
8334;BME280;4204;43.004;23.052;2023-05-11T07:52:50;94069.78;;;11.27;100.00
8334;BME280;4204;43.004;23.052;2023-05-11T07:55:18;94082.34;;;11.35;100.00
8334;BME280;4204;43.004;23.052;2023-05-11T07:57:50;94074.16;;;11.32;100.00
8334;BME280;4204;43.004;23.052;2023-05-11T08:00:18;94076.38;;;11.47;100.00
8334;BME280;4204;43.004;23.052;2023-05-11T08:02:47;94075.03;;;11.75;100.00
8334;BME280;4204;43.004;23.052;2023-05-11T08:08:16;94066.00;;;12.48;100.00
8334;BME280;4204;43.004;23.052;2023-05-11T08:10:44;94008.97;;;12.15;100.00
8334;BME280;4204;43.004;23.052;2023-05-11T08:13:18;94083.72;;;12.61;100.00
8334;BME280;4204;43.004;23.052;2023-05-11T08:15:48;94085.00;;;12.55;100.00
8334;BME280;4204;43.004;23.052;2023-05-11T08:36:26;94072.75;;;12.46;100.00
8334;BME280;4204;43.004;23.052;2023-05-11T08:39:07;94023.56;;;12.09;100.00
8334;BME280;4204;43.004;23.052;2023-05-11T08:41:37;94059.94;;;12.31;100.00
8334;BME280;4204;43.004;23.052;2023-05-11T08:44:06;94037.22;;;12.07;100.00
8334;BME280;4204;43.004;23.052;2023-05-11T08:46:55;94006.66;;;12.05;100.00
8334;BME280;4204;43.004;23.052;2023-05-11T08:55:47;94059.34;;;13.18;100.00
8334;BME280;4204;43.004;23.052;2023-05-11T08:58:40;93998.03;;;12.92;100.00
8334;BME280;4204;43.004;23.052;2023-05-11T09:01:12;93998.97;;;12.87;100.00
8334;BME280;4204;43.004;23.052;2023-05-11T09:04:03;93995.22;;;12.88;100.00
8334;BME280;4204;43.004;23.052;2023-05-11T09:06:43;93999.44;;;12.89;100.00
8334;BME280;4204;43.004;23.052;2023-05-11T09:12:16;94064.88;;;13.04;100.00
8334;BME280;4204;43.004;23.052;2023-05-11T09:14:51;94063.34;;;12.94;100.00
8334;BME280;4204;43.004;23.052;2023-05-11T09:17:19;94060.38;;;12.87;100.00
8334;BME280;4204;43.004;23.052;2023-05-11T09:19:58;94059.28;;;12.88;100.00
8334;BME280;4204;43.004;23.052;2023-05-11T09:22:26;94065.28;;;12.77;100.00
8334;BME280;4204;43.004;23.052;2023-05-11T09:24:54;94056.66;;;12.80;100.00
8334;BME280;4204;43.004;23.052;2023-05-11T09:27:24;94055.25;;;12.82;100.00
8334;BME280;4204;43.004;23.052;2023-05-11T09:29:52;94059.59;;;12.87;100.00
8334;BME280;4204;43.004;23.052;2023-05-11T09:32:20;94060.47;;;12.99;100.00
8334;BME280;4204;43.004;23.052;2023-05-11T09:34:48;94062.22;;;13.04;100.00
8334;BME280;4204;43.004;23.052;2023-05-11T09:37:17;94051.88;;;12.94;100.00
8334;BME280;4204;43.004;23.052;2023-05-11T09:39:45;94053.00;;;12.93;100.00
8334;BME280;4204;43.004;23.052;2023-05-11T09:42:13;94043.16;;;12.76;100.00
8334;BME280;4204;43.004;23.052;2023-05-11T09:44:43;94040.19;;;12.78;100.00
8334;BME280;4204;43.004;23.052;2023-05-11T09:47:12;94041.88;;;12.82;100.00
8334;BME280;4204;43.004;23.052;2023-05-11T09:49:41;94041.44;;;12.80;100.00
8334;BME280;4204;43.004;23.052;2023-05-11T09:52:10;94029.75;;;12.85;100.00
8334;BME280;4204;43.004;23.052;2023-05-11T09:54:41;94033.47;;;13.10;100.00
8334;BME280;4204;43.004;23.052;2023-05-11T09:57:22;94034.22;;;13.10;100.00
8334;BME280;4204;43.004;23.052;2023-05-11T09:59:52;94028.78;;;13.27;100.00
8334;BME280;4204;43.004;23.052;2023-05-11T10:02:21;94036.09;;;13.39;100.00
8334;BME280;4204;43.004;23.052;2023-05-11T10:04:50;94010.22;;;13.31;100.00
8334;BME280;4204;43.004;23.052;2023-05-11T10:07:26;94027.28;;;13.47;100.00
8334;BME280;4204;43.004;23.052;2023-05-11T10:09:55;94027.41;;;13.50;100.00
8334;BME280;4204;43.004;23.052;2023-05-11T10:12:24;94023.47;;;13.48;100.00
8334;BME280;4204;43.004;23.052;2023-05-11T10:14:59;94011.75;;;13.61;100.00
8334;BME280;4204;43.004;23.052;2023-05-11T10:17:28;94016.94;;;13.57;100.00
8334;BME280;4204;43.004;23.052;2023-05-11T10:19:57;94011.94;;;13.76;100.00
8334;BME280;4204;43.004;23.052;2023-05-11T10:22:26;94003.47;;;13.74;100.00
8334;BME280;4204;43.004;23.052;2023-05-11T10:24:55;94001.38;;;13.80;100.00
8334;BME280;4204;43.004;23.052;2023-05-11T10:27:24;94002.19;;;13.93;100.00
8334;BME280;4204;43.004;23.052;2023-05-11T10:29:52;93982.03;;;13.95;100.00
8334;BME280;4204;43.004;23.052;2023-05-11T10:32:21;93991.91;;;14.15;100.00
8334;BME280;4204;43.004;23.052;2023-05-11T10:34:49;93993.06;;;14.26;100.00
8334;BME280;4204;43.004;23.052;2023-05-11T10:37:17;93992.56;;;14.33;100.00
8334;BME280;4204;43.004;23.052;2023-05-11T10:39:46;93982.88;;;14.52;100.00
8334;BME280;4204;43.004;23.052;2023-05-11T10:42:29;93972.19;;;14.65;100.00
8334;BME280;4204;43.004;23.052;2023-05-11T10:45:17;93986.94;;;14.83;100.00
8334;BME280;4204;43.004;23.052;2023-05-11T10:48:25;93985.25;;;14.90;100.00
8334;BME280;4204;43.004;23.052;2023-05-11T10:51:09;93986.13;;;14.82;100.00
8334;BME280;4204;43.004;23.052;2023-05-11T10:53:56;93983.59;;;14.98;100.00
8334;BME280;4204;43.004;23.052;2023-05-11T10:56:48;93986.38;;;15.01;100.00
8334;BME280;4204;43.004;23.052;2023-05-11T10:59:33;93985.38;;;15.06;100.00
8334;BME280;4204;43.004;23.052;2023-05-11T11:02:07;93972.06;;;15.21;100.00
8334;BME280;4204;43.004;23.052;2023-05-11T11:04:44;93979.88;;;15.26;100.00
8334;BME280;4204;43.004;23.052;2023-05-11T11:07:13;93973.81;;;15.29;100.00
8334;BME280;4204;43.004;23.052;2023-05-11T11:09:55;93975.84;;;15.45;100.00
8334;BME280;4204;43.004;23.052;2023-05-11T11:12:25;93964.22;;;15.40;100.00
8334;BME280;4204;43.004;23.052;2023-05-11T11:14:55;93977.91;;;15.63;100.00
8334;BME280;4204;43.004;23.052;2023-05-11T11:17:25;93966.63;;;15.70;100.00
8334;BME280;4204;43.004;23.052;2023-05-11T11:19:58;93958.44;;;15.78;100.00
8334;BME280;4204;43.004;23.052;2023-05-11T11:22:43;93950.38;;;15.78;100.00
8334;BME280;4204;43.004;23.052;2023-05-11T11:25:13;93970.72;;;15.79;100.00
8334;BME280;4204;43.004;23.052;2023-05-11T11:27:55;93967.66;;;15.93;100.00
8334;BME280;4204;43.004;23.052;2023-05-11T11:30:26;93963.78;;;16.06;100.00
8334;BME280;4204;43.004;23.052;2023-05-11T11:33:31;93961.03;;;16.18;100.00
8334;BME280;4204;43.004;23.052;2023-05-11T11:36:01;93957.22;;;16.19;100.00
8334;BME280;4204;43.004;23.052;2023-05-11T11:38:29;93955.41;;;16.07;100.00
8334;BME280;4204;43.004;23.052;2023-05-11T11:40:58;93964.31;;;16.11;100.00
8334;BME280;4204;43.004;23.052;2023-05-11T11:43:29;93953.59;;;16.11;100.00
8334;BME280;4204;43.004;23.052;2023-05-11T11:46:24;93951.66;;;16.12;100.00
8334;BME280;4204;43.004;23.052;2023-05-11T11:49:05;93948.97;;;16.12;100.00
8334;BME280;4204;43.004;23.052;2023-05-11T11:51:35;93948.50;;;16.22;100.00
8334;BME280;4204;43.004;23.052;2023-05-11T11:54:05;93952.97;;;16.18;100.00
8334;BME280;4204;43.004;23.052;2023-05-11T11:56:38;93940.44;;;16.22;100.00
8334;BME280;4204;43.004;23.052;2023-05-11T11:59:06;93955.19;;;16.28;100.00
8334;BME280;4204;43.004;23.052;2023-05-11T12:01:39;93955.66;;;16.18;100.00
8334;BME280;4204;43.004;23.052;2023-05-11T12:07:09;93961.84;;;15.91;100.00
8334;BME280;4204;43.004;23.052;2023-05-11T12:09:37;93963.34;;;15.76;100.00
8334;BME280;4204;43.004;23.052;2023-05-11T12:12:06;93960.91;;;15.71;100.00
8334;BME280;4204;43.004;23.052;2023-05-11T12:14:35;93951.63;;;15.69;100.00
8334;BME280;4204;43.004;23.052;2023-05-11T12:17:05;93967.72;;;15.69;100.00
8334;BME280;4204;43.004;23.052;2023-05-11T12:19:40;93952.69;;;15.64;100.00
8334;BME280;4204;43.004;23.052;2023-05-11T12:22:09;93961.16;;;15.66;100.00
8334;BME280;4204;43.004;23.052;2023-05-11T12:24:39;93949.75;;;15.69;100.00
8334;BME280;4204;43.004;23.052;2023-05-11T12:27:07;93951.25;;;15.82;100.00
8334;BME280;4204;43.004;23.052;2023-05-11T12:29:35;93949.94;;;15.76;100.00
8334;BME280;4204;43.004;23.052;2023-05-11T12:32:06;93947.72;;;15.78;100.00
8334;BME280;4204;43.004;23.052;2023-05-11T12:34:37;93934.19;;;15.75;100.00
8334;BME280;4204;43.004;23.052;2023-05-11T12:37:05;93927.78;;;15.79;100.00
8334;BME280;4204;43.004;23.052;2023-05-11T12:39:35;93918.81;;;15.87;100.00
8334;BME280;4204;43.004;23.052;2023-05-11T12:42:05;93920.19;;;15.81;100.00
8334;BME280;4204;43.004;23.052;2023-05-11T12:44:32;93923.13;;;15.76;100.00
8334;BME280;4204;43.004;23.052;2023-05-11T12:47:00;93912.91;;;15.54;100.00
8334;BME280;4204;43.004;23.052;2023-05-11T12:49:28;93923.63;;;15.54;100.00
8334;BME280;4204;43.004;23.052;2023-05-11T12:52:01;93919.59;;;15.60;100.00
8334;BME280;4204;43.004;23.052;2023-05-11T12:54:36;93923.19;;;15.52;100.00
8334;BME280;4204;43.004;23.052;2023-05-11T12:57:05;93923.81;;;15.46;100.00
8334;BME280;4204;43.004;23.052;2023-05-11T12:59:35;93910.41;;;15.46;100.00
8334;BME280;4204;43.004;23.052;2023-05-11T13:02:05;93912.38;;;15.49;100.00
8334;BME280;4204;43.004;23.052;2023-05-11T13:04:33;93917.75;;;15.49;100.00
8334;BME280;4204;43.004;23.052;2023-05-11T13:07:01;93909.81;;;15.52;100.00
8334;BME280;4204;43.004;23.052;2023-05-11T13:09:29;93906.16;;;15.72;100.00
8334;BME280;4204;43.004;23.052;2023-05-11T13:12:13;93898.56;;;15.74;100.00
8334;BME280;4204;43.004;23.052;2023-05-11T13:14:43;93909.22;;;15.59;100.00
8334;BME280;4204;43.004;23.052;2023-05-11T13:17:11;93912.69;;;15.59;100.00
8334;BME280;4204;43.004;23.052;2023-05-11T13:19:39;93906.81;;;15.54;100.00
8334;BME280;4204;43.004;23.052;2023-05-11T13:22:10;93899.13;;;15.68;100.00
8334;BME280;4204;43.004;23.052;2023-05-11T13:24:37;93905.56;;;15.51;100.00
8334;BME280;4204;43.004;23.052;2023-05-11T13:27:05;93905.66;;;15.55;100.00
8334;BME280;4204;43.004;23.052;2023-05-11T13:29:35;93910.00;;;15.59;100.00
8334;BME280;4204;43.004;23.052;2023-05-11T13:32:03;93902.97;;;15.55;100.00
8334;BME280;4204;43.004;23.052;2023-05-11T13:34:31;93901.44;;;15.41;100.00
8334;BME280;4204;43.004;23.052;2023-05-11T13:36:59;93900.09;;;15.35;100.00
8334;BME280;4204;43.004;23.052;2023-05-11T13:39:26;93897.88;;;15.37;100.00
8334;BME280;4204;43.004;23.052;2023-05-11T13:41:54;93903.84;;;15.31;100.00
8334;BME280;4204;43.004;23.052;2023-05-11T13:44:22;93901.03;;;15.27;100.00
8334;BME280;4204;43.004;23.052;2023-05-11T13:46:51;93898.13;;;15.32;100.00
8334;BME280;4204;43.004;23.052;2023-05-11T13:49:20;93888.72;;;15.38;100.00
8334;BME280;4204;43.004;23.052;2023-05-11T13:51:48;93891.88;;;15.28;100.00
8334;BME280;4204;43.004;23.052;2023-05-11T13:54:15;93887.09;;;15.22;100.00
8334;BME280;4204;43.004;23.052;2023-05-11T13:56:43;93887.63;;;15.27;100.00
8334;BME280;4204;43.004;23.052;2023-05-11T13:59:11;93888.56;;;15.19;100.00